New London, Connecticut
Current Conditions -  °F | °C
As of 4:46 PM on Wednesday 26 Nov 2014 (Local Time) from KGON Reporting Station
Moderate Rain Moderate Rain  
Wind Chill: -3°   Ceiling: 900
Heat Index:   Visibility: 3mi
Dew Point:   Wind: 23mph
Humidity: 96%   Direction: 30°NNE
Pressure: 29.77"   Gusts: 30mph
Location:  41.36°N, 72.1°W
Report Text: KGON 262146Z 03020G26KT 3SM RA BR BKN009 BKN049 OVC060 03/02 A2977 RMK AO2 PK WND 03029/2122 P0005 T00280022
Loading
Personal Weather Stations






























Interactive Weather Map New forecast layout! Learn more

10-Day Weather Forecast

Advertisements
Track Severe Weather on mobile